sensor_id;sensor_type;location;lat;lon;timestamp;P1;durP1;ratioP1;P2;durP2;ratioP2
10657;SDS011;5377;43.276;26.930;2023-12-22T00:01:58;46.23;;;24.33;;
10657;SDS011;5377;43.276;26.930;2023-12-22T00:04:24;41.53;;;24.50;;
10657;SDS011;5377;43.276;26.930;2023-12-22T00:06:51;34.50;;;22.33;;
10657;SDS011;5377;43.276;26.930;2023-12-22T00:09:19;36.53;;;22.87;;
10657;SDS011;5377;43.276;26.930;2023-12-22T00:11:45;32.20;;;20.43;;
10657;SDS011;5377;43.276;26.930;2023-12-22T00:14:12;31.60;;;22.37;;
10657;SDS011;5377;43.276;26.930;2023-12-22T00:16:38;31.93;;;20.40;;
10657;SDS011;5377;43.276;26.930;2023-12-22T00:19:05;29.87;;;19.77;;
10657;SDS011;5377;43.276;26.930;2023-12-22T00:21:31;30.80;;;18.40;;
10657;SDS011;5377;43.276;26.930;2023-12-22T00:23:58;28.83;;;18.83;;
10657;SDS011;5377;43.276;26.930;2023-12-22T00:26:26;27.93;;;17.60;;
10657;SDS011;5377;43.276;26.930;2023-12-22T00:28:52;22.67;;;17.07;;
10657;SDS011;5377;43.276;26.930;2023-12-22T00:31:19;31.03;;;17.23;;
10657;SDS011;5377;43.276;26.930;2023-12-22T00:33:45;29.43;;;18.07;;
10657;SDS011;5377;43.276;26.930;2023-12-22T00:36:12;27.73;;;18.17;;
10657;SDS011;5377;43.276;26.930;2023-12-22T00:38:39;25.70;;;16.10;;
10657;SDS011;5377;43.276;26.930;2023-12-22T00:41:05;27.93;;;15.93;;
10657;SDS011;5377;43.276;26.930;2023-12-22T00:43:33;26.17;;;16.20;;
10657;SDS011;5377;43.276;26.930;2023-12-22T00:45:59;26.50;;;17.27;;
10657;SDS011;5377;43.276;26.930;2023-12-22T00:48:27;23.73;;;15.63;;
10657;SDS011;5377;43.276;26.930;2023-12-22T00:50:53;22.90;;;15.23;;
10657;SDS011;5377;43.276;26.930;2023-12-22T00:53:20;21.23;;;14.83;;
10657;SDS011;5377;43.276;26.930;2023-12-22T00:55:46;27.87;;;18.23;;
10657;SDS011;5377;43.276;26.930;2023-12-22T00:58:13;30.80;;;20.33;;
10657;SDS011;5377;43.276;26.930;2023-12-22T01:00:41;27.67;;;19.53;;
10657;SDS011;5377;43.276;26.930;2023-12-22T01:03:07;26.97;;;18.10;;
10657;SDS011;5377;43.276;26.930;2023-12-22T01:05:35;25.97;;;17.77;;
10657;SDS011;5377;43.276;26.930;2023-12-22T01:08:02;25.13;;;16.63;;
10657;SDS011;5377;43.276;26.930;2023-12-22T01:10:29;26.83;;;16.17;;
10657;SDS011;5377;43.276;26.930;2023-12-22T01:12:55;24.17;;;16.73;;
10657;SDS011;5377;43.276;26.930;2023-12-22T01:15:22;25.60;;;16.23;;
10657;SDS011;5377;43.276;26.930;2023-12-22T01:17:50;22.40;;;16.13;;
10657;SDS011;5377;43.276;26.930;2023-12-22T01:20:16;27.37;;;16.73;;
10657;SDS011;5377;43.276;26.930;2023-12-22T01:22:44;28.73;;;16.83;;
10657;SDS011;5377;43.276;26.930;2023-12-22T01:25:10;27.90;;;18.93;;
10657;SDS011;5377;43.276;26.930;2023-12-22T01:27:37;29.03;;;20.70;;
10657;SDS011;5377;43.276;26.930;2023-12-22T01:30:03;22.07;;;15.10;;
10657;SDS011;5377;43.276;26.930;2023-12-22T01:32:30;22.30;;;15.60;;
10657;SDS011;5377;43.276;26.930;2023-12-22T01:35:01;21.33;;;13.67;;
10657;SDS011;5377;43.276;26.930;2023-12-22T01:37:34;22.03;;;15.27;;
10657;SDS011;5377;43.276;26.930;2023-12-22T01:40:00;28.97;;;17.67;;
10657;SDS011;5377;43.276;26.930;2023-12-22T01:42:27;26.43;;;16.97;;
10657;SDS011;5377;43.276;26.930;2023-12-22T01:44:54;25.93;;;18.13;;
10657;SDS011;5377;43.276;26.930;2023-12-22T01:47:20;29.80;;;17.83;;
10657;SDS011;5377;43.276;26.930;2023-12-22T01:49:47;32.27;;;18.87;;
10657;SDS011;5377;43.276;26.930;2023-12-22T01:52:15;35.73;;;22.00;;
10657;SDS011;5377;43.276;26.930;2023-12-22T01:54:42;36.00;;;21.13;;
10657;SDS011;5377;43.276;26.930;2023-12-22T01:57:09;34.30;;;21.03;;
10657;SDS011;5377;43.276;26.930;2023-12-22T01:59:36;27.10;;;18.90;;
10657;SDS011;5377;43.276;26.930;2023-12-22T02:02:02;28.73;;;17.97;;
10657;SDS011;5377;43.276;26.930;2023-12-22T02:04:30;26.10;;;17.37;;
10657;SDS011;5377;43.276;26.930;2023-12-22T02:06:57;26.87;;;17.20;;
10657;SDS011;5377;43.276;26.930;2023-12-22T02:09:25;33.27;;;17.97;;
10657;SDS011;5377;43.276;26.930;2023-12-22T02:11:52;25.20;;;16.43;;
10657;SDS011;5377;43.276;26.930;2023-12-22T02:14:18;23.07;;;16.37;;
10657;SDS011;5377;43.276;26.930;2023-12-22T02:16:46;21.83;;;14.90;;
10657;SDS011;5377;43.276;26.930;2023-12-22T02:19:15;24.17;;;14.17;;
10657;SDS011;5377;43.276;26.930;2023-12-22T02:24:28;20.27;;;13.07;;
10657;SDS011;5377;43.276;26.930;2023-12-22T02:26:55;19.47;;;12.33;;
10657;SDS011;5377;43.276;26.930;2023-12-22T02:29:23;16.23;;;11.97;;
10657;SDS011;5377;43.276;26.930;2023-12-22T02:31:50;21.40;;;13.20;;
10657;SDS011;5377;43.276;26.930;2023-12-22T02:34:18;20.30;;;12.80;;
10657;SDS011;5377;43.276;26.930;2023-12-22T02:36:45;19.97;;;11.50;;
10657;SDS011;5377;43.276;26.930;2023-12-22T02:39:12;23.60;;;13.43;;
10657;SDS011;5377;43.276;26.930;2023-12-22T02:41:41;16.67;;;9.90;;
10657;SDS011;5377;43.276;26.930;2023-12-22T02:44:08;19.70;;;12.37;;
10657;SDS011;5377;43.276;26.930;2023-12-22T02:46:34;15.80;;;10.60;;
10657;SDS011;5377;43.276;26.930;2023-12-22T02:49:01;19.03;;;12.13;;
10657;SDS011;5377;43.276;26.930;2023-12-22T02:51:28;19.87;;;12.83;;
10657;SDS011;5377;43.276;26.930;2023-12-22T02:53:54;18.23;;;13.23;;
10657;SDS011;5377;43.276;26.930;2023-12-22T02:56:21;21.37;;;13.10;;
10657;SDS011;5377;43.276;26.930;2023-12-22T02:58:49;18.87;;;12.73;;
10657;SDS011;5377;43.276;26.930;2023-12-22T03:01:15;18.97;;;12.67;;
10657;SDS011;5377;43.276;26.930;2023-12-22T03:03:41;22.87;;;12.47;;
10657;SDS011;5377;43.276;26.930;2023-12-22T03:06:08;24.03;;;12.90;;
10657;SDS011;5377;43.276;26.930;2023-12-22T03:08:34;19.90;;;13.40;;
10657;SDS011;5377;43.276;26.930;2023-12-22T03:11:01;26.63;;;14.03;;
10657;SDS011;5377;43.276;26.930;2023-12-22T03:13:28;23.93;;;14.30;;
10657;SDS011;5377;43.276;26.930;2023-12-22T03:15:55;20.07;;;13.93;;
10657;SDS011;5377;43.276;26.930;2023-12-22T03:18:22;25.07;;;14.60;;
10657;SDS011;5377;43.276;26.930;2023-12-22T03:20:48;26.20;;;15.83;;
10657;SDS011;5377;43.276;26.930;2023-12-22T03:23:15;22.93;;;15.63;;
10657;SDS011;5377;43.276;26.930;2023-12-22T03:25:41;21.37;;;13.30;;
10657;SDS011;5377;43.276;26.930;2023-12-22T03:28:08;22.03;;;14.07;;
10657;SDS011;5377;43.276;26.930;2023-12-22T03:30:34;26.00;;;15.37;;
10657;SDS011;5377;43.276;26.930;2023-12-22T03:33:04;25.97;;;14.23;;
10657;SDS011;5377;43.276;26.930;2023-12-22T03:35:31;25.07;;;16.87;;
10657;SDS011;5377;43.276;26.930;2023-12-22T03:37:58;26.53;;;15.27;;
10657;SDS011;5377;43.276;26.930;2023-12-22T03:40:24;30.37;;;19.17;;
10657;SDS011;5377;43.276;26.930;2023-12-22T03:42:51;30.90;;;16.33;;
10657;SDS011;5377;43.276;26.930;2023-12-22T03:45:17;27.77;;;15.80;;
10657;SDS011;5377;43.276;26.930;2023-12-22T03:47:44;23.43;;;14.10;;
10657;SDS011;5377;43.276;26.930;2023-12-22T03:50:11;24.07;;;15.67;;
10657;SDS011;5377;43.276;26.930;2023-12-22T03:52:38;23.07;;;14.50;;
10657;SDS011;5377;43.276;26.930;2023-12-22T03:55:05;22.07;;;13.67;;
10657;SDS011;5377;43.276;26.930;2023-12-22T03:57:31;24.00;;;14.17;;
10657;SDS011;5377;43.276;26.930;2023-12-22T03:59:58;23.13;;;14.90;;
10657;SDS011;5377;43.276;26.930;2023-12-22T04:02:24;24.70;;;16.53;;
10657;SDS011;5377;43.276;26.930;2023-12-22T04:04:51;28.20;;;16.30;;
10657;SDS011;5377;43.276;26.930;2023-12-22T04:07:19;27.53;;;17.07;;
10657;SDS011;5377;43.276;26.930;2023-12-22T04:09:45;25.40;;;16.90;;
10657;SDS011;5377;43.276;26.930;2023-12-22T04:12:12;28.67;;;16.60;;
10657;SDS011;5377;43.276;26.930;2023-12-22T04:14:38;28.97;;;16.77;;
10657;SDS011;5377;43.276;26.930;2023-12-22T04:17:05;29.17;;;20.03;;
10657;SDS011;5377;43.276;26.930;2023-12-22T04:19:31;38.87;;;19.07;;
10657;SDS011;5377;43.276;26.930;2023-12-22T04:21:58;31.33;;;19.53;;
10657;SDS011;5377;43.276;26.930;2023-12-22T04:24:26;32.23;;;19.00;;
10657;SDS011;5377;43.276;26.930;2023-12-22T04:26:52;35.17;;;19.00;;
10657;SDS011;5377;43.276;26.930;2023-12-22T04:29:19;29.37;;;19.53;;
10657;SDS011;5377;43.276;26.930;2023-12-22T04:31:45;29.37;;;18.10;;
10657;SDS011;5377;43.276;26.930;2023-12-22T04:34:13;25.30;;;16.57;;
10657;SDS011;5377;43.276;26.930;2023-12-22T04:36:39;26.53;;;16.07;;
10657;SDS011;5377;43.276;26.930;2023-12-22T04:39:06;29.07;;;19.03;;
10657;SDS011;5377;43.276;26.930;2023-12-22T04:41:34;27.33;;;17.60;;
10657;SDS011;5377;43.276;26.930;2023-12-22T04:44:00;35.07;;;19.97;;
10657;SDS011;5377;43.276;26.930;2023-12-22T04:46:28;23.40;;;17.40;;
10657;SDS011;5377;43.276;26.930;2023-12-22T04:48:54;47.00;;;20.70;;
10657;SDS011;5377;43.276;26.930;2023-12-22T04:51:21;37.97;;;21.27;;
10657;SDS011;5377;43.276;26.930;2023-12-22T04:53:47;30.03;;;20.17;;
10657;SDS011;5377;43.276;26.930;2023-12-22T04:56:14;65.83;;;33.73;;
10657;SDS011;5377;43.276;26.930;2023-12-22T04:58:42;40.60;;;28.70;;
10657;SDS011;5377;43.276;26.930;2023-12-22T05:01:09;35.93;;;25.33;;
10657;SDS011;5377;43.276;26.930;2023-12-22T05:03:35;32.60;;;21.10;;
10657;SDS011;5377;43.276;26.930;2023-12-22T05:06:02;29.83;;;20.40;;
10657;SDS011;5377;43.276;26.930;2023-12-22T05:08:29;30.30;;;20.00;;
10657;SDS011;5377;43.276;26.930;2023-12-22T05:10:55;33.40;;;23.00;;
10657;SDS011;5377;43.276;26.930;2023-12-22T05:13:22;44.63;;;26.17;;
10657;SDS011;5377;43.276;26.930;2023-12-22T05:15:50;49.93;;;27.40;;
10657;SDS011;5377;43.276;26.930;2023-12-22T05:18:16;40.03;;;24.53;;
10657;SDS011;5377;43.276;26.930;2023-12-22T05:20:43;41.53;;;23.27;;
10657;SDS011;5377;43.276;26.930;2023-12-22T05:23:10;35.83;;;23.90;;
10657;SDS011;5377;43.276;26.930;2023-12-22T05:25:36;39.83;;;24.43;;
10657;SDS011;5377;43.276;26.930;2023-12-22T05:28:03;52.07;;;25.30;;
10657;SDS011;5377;43.276;26.930;2023-12-22T05:30:30;43.60;;;25.10;;
10657;SDS011;5377;43.276;26.930;2023-12-22T05:32:57;56.33;;;31.03;;
10657;SDS011;5377;43.276;26.930;2023-12-22T05:35:24;56.57;;;30.93;;
10657;SDS011;5377;43.276;26.930;2023-12-22T05:37:51;55.93;;;33.67;;
10657;SDS011;5377;43.276;26.930;2023-12-22T05:40:17;72.63;;;39.23;;
10657;SDS011;5377;43.276;26.930;2023-12-22T05:42:44;63.77;;;37.30;;
10657;SDS011;5377;43.276;26.930;2023-12-22T05:45:10;61.90;;;39.13;;
10657;SDS011;5377;43.276;26.930;2023-12-22T05:47:37;74.00;;;39.23;;
10657;SDS011;5377;43.276;26.930;2023-12-22T05:50:08;69.77;;;38.40;;
10657;SDS011;5377;43.276;26.930;2023-12-22T05:52:36;58.03;;;31.13;;
10657;SDS011;5377;43.276;26.930;2023-12-22T05:55:02;55.77;;;32.37;;
10657;SDS011;5377;43.276;26.930;2023-12-22T05:57:29;52.47;;;32.93;;
10657;SDS011;5377;43.276;26.930;2023-12-22T05:59:55;57.40;;;35.50;;
10657;SDS011;5377;43.276;26.930;2023-12-22T06:02:22;63.63;;;37.47;;
10657;SDS011;5377;43.276;26.930;2023-12-22T06:04:48;68.03;;;41.07;;
10657;SDS011;5377;43.276;26.930;2023-12-22T06:07:16;62.90;;;38.60;;
10657;SDS011;5377;43.276;26.930;2023-12-22T06:09:44;93.20;;;56.53;;
10657;SDS011;5377;43.276;26.930;2023-12-22T06:12:11;101.77;;;53.03;;
10657;SDS011;5377;43.276;26.930;2023-12-22T06:14:37;109.10;;;62.63;;
10657;SDS011;5377;43.276;26.930;2023-12-22T06:17:04;126.57;;;67.10;;
10657;SDS011;5377;43.276;26.930;2023-12-22T06:19:30;86.13;;;53.60;;
10657;SDS011;5377;43.276;26.930;2023-12-22T06:21:57;95.73;;;54.03;;
10657;SDS011;5377;43.276;26.930;2023-12-22T06:24:26;108.23;;;57.33;;
10657;SDS011;5377;43.276;26.930;2023-12-22T06:26:53;113.73;;;61.00;;
10657;SDS011;5377;43.276;26.930;2023-12-22T06:29:19;92.00;;;57.90;;
10657;SDS011;5377;43.276;26.930;2023-12-22T06:31:46;92.27;;;57.77;;
10657;SDS011;5377;43.276;26.930;2023-12-22T06:34:15;137.10;;;68.83;;
10657;SDS011;5377;43.276;26.930;2023-12-22T06:36:42;148.23;;;73.93;;
10657;SDS011;5377;43.276;26.930;2023-12-22T06:39:08;138.83;;;67.27;;
10657;SDS011;5377;43.276;26.930;2023-12-22T06:41:36;106.53;;;57.97;;
10657;SDS011;5377;43.276;26.930;2023-12-22T06:44:03;84.20;;;50.93;;
10657;SDS011;5377;43.276;26.930;2023-12-22T06:46:30;114.73;;;71.77;;
10657;SDS011;5377;43.276;26.930;2023-12-22T06:48:56;109.10;;;67.10;;
10657;SDS011;5377;43.276;26.930;2023-12-22T06:51:23;134.40;;;76.47;;
10657;SDS011;5377;43.276;26.930;2023-12-22T06:53:51;146.80;;;97.33;;
10657;SDS011;5377;43.276;26.930;2023-12-22T06:56:17;140.93;;;90.60;;
10657;SDS011;5377;43.276;26.930;2023-12-22T06:58:46;132.33;;;76.97;;
10657;SDS011;5377;43.276;26.930;2023-12-22T07:01:17;144.83;;;72.43;;
10657;SDS011;5377;43.276;26.930;2023-12-22T07:03:44;150.77;;;75.53;;
10657;SDS011;5377;43.276;26.930;2023-12-22T07:06:10;145.73;;;77.07;;
10657;SDS011;5377;43.276;26.930;2023-12-22T07:08:37;148.67;;;73.30;;
10657;SDS011;5377;43.276;26.930;2023-12-22T07:11:04;140.77;;;65.20;;
10657;SDS011;5377;43.276;26.930;2023-12-22T07:13:32;129.53;;;70.67;;
10657;SDS011;5377;43.276;26.930;2023-12-22T07:16:00;141.70;;;73.33;;
10657;SDS011;5377;43.276;26.930;2023-12-22T07:18:27;151.23;;;80.03;;
10657;SDS011;5377;43.276;26.930;2023-12-22T07:20:55;159.97;;;86.37;;
10657;SDS011;5377;43.276;26.930;2023-12-22T07:23:22;147.87;;;79.57;;
10657;SDS011;5377;43.276;26.930;2023-12-22T07:25:48;108.00;;;64.23;;
10657;SDS011;5377;43.276;26.930;2023-12-22T07:28:15;100.13;;;58.97;;
10657;SDS011;5377;43.276;26.930;2023-12-22T07:30:41;89.10;;;51.03;;
10657;SDS011;5377;43.276;26.930;2023-12-22T07:33:09;81.83;;;50.13;;
10657;SDS011;5377;43.276;26.930;2023-12-22T07:35:36;83.07;;;51.87;;
10657;SDS011;5377;43.276;26.930;2023-12-22T07:38:03;77.70;;;49.00;;
10657;SDS011;5377;43.276;26.930;2023-12-22T07:40:29;76.60;;;48.10;;
10657;SDS011;5377;43.276;26.930;2023-12-22T07:42:56;75.37;;;43.27;;
10657;SDS011;5377;43.276;26.930;2023-12-22T07:45:22;59.43;;;37.87;;
10657;SDS011;5377;43.276;26.930;2023-12-22T07:47:49;62.20;;;35.33;;
10657;SDS011;5377;43.276;26.930;2023-12-22T07:50:17;47.60;;;30.33;;
10657;SDS011;5377;43.276;26.930;2023-12-22T07:52:43;59.60;;;30.07;;
10657;SDS011;5377;43.276;26.930;2023-12-22T07:55:10;59.67;;;30.07;;
10657;SDS011;5377;43.276;26.930;2023-12-22T07:57:36;42.67;;;30.30;;
10657;SDS011;5377;43.276;26.930;2023-12-22T08:00:04;44.00;;;31.53;;
10657;SDS011;5377;43.276;26.930;2023-12-22T08:02:30;54.60;;;34.30;;
10657;SDS011;5377;43.276;26.930;2023-12-22T08:04:57;62.50;;;33.57;;
10657;SDS011;5377;43.276;26.930;2023-12-22T08:07:26;53.90;;;32.13;;
10657;SDS011;5377;43.276;26.930;2023-12-22T08:09:52;42.97;;;24.77;;
10657;SDS011;5377;43.276;26.930;2023-12-22T08:12:19;37.73;;;20.83;;
10657;SDS011;5377;43.276;26.930;2023-12-22T08:14:45;41.20;;;22.27;;
10657;SDS011;5377;43.276;26.930;2023-12-22T08:17:12;30.30;;;19.77;;
10657;SDS011;5377;43.276;26.930;2023-12-22T08:19:39;30.40;;;19.27;;
10657;SDS011;5377;43.276;26.930;2023-12-22T08:22:07;33.33;;;20.73;;
10657;SDS011;5377;43.276;26.930;2023-12-22T08:24:35;29.43;;;19.87;;
10657;SDS011;5377;43.276;26.930;2023-12-22T08:27:02;32.10;;;20.17;;
10657;SDS011;5377;43.276;26.930;2023-12-22T08:29:28;30.13;;;19.00;;
10657;SDS011;5377;43.276;26.930;2023-12-22T08:31:55;32.13;;;19.90;;
10657;SDS011;5377;43.276;26.930;2023-12-22T08:34:21;40.37;;;21.63;;
10657;SDS011;5377;43.276;26.930;2023-12-22T08:36:48;45.73;;;24.60;;
10657;SDS011;5377;43.276;26.930;2023-12-22T08:39:14;59.57;;;31.10;;
10657;SDS011;5377;43.276;26.930;2023-12-22T08:41:42;68.27;;;35.47;;
10657;SDS011;5377;43.276;26.930;2023-12-22T08:44:09;77.60;;;41.60;;
10657;SDS011;5377;43.276;26.930;2023-12-22T08:46:35;86.00;;;38.77;;
10657;SDS011;5377;43.276;26.930;2023-12-22T08:49:02;62.50;;;36.50;;
10657;SDS011;5377;43.276;26.930;2023-12-22T08:51:29;75.93;;;37.33;;
10657;SDS011;5377;43.276;26.930;2023-12-22T08:53:54;71.80;;;42.43;;
10657;SDS011;5377;43.276;26.930;2023-12-22T08:56:21;82.17;;;40.23;;
10657;SDS011;5377;43.276;26.930;2023-12-22T08:58:50;80.80;;;45.37;;
10657;SDS011;5377;43.276;26.930;2023-12-22T09:01:17;79.43;;;47.53;;
10657;SDS011;5377;43.276;26.930;2023-12-22T09:03:44;91.67;;;47.87;;
10657;SDS011;5377;43.276;26.930;2023-12-22T09:06:13;78.33;;;41.33;;
10657;SDS011;5377;43.276;26.930;2023-12-22T09:08:40;72.03;;;35.23;;
10657;SDS011;5377;43.276;26.930;2023-12-22T09:11:06;41.90;;;25.23;;
10657;SDS011;5377;43.276;26.930;2023-12-22T09:13:33;40.53;;;24.40;;
10657;SDS011;5377;43.276;26.930;2023-12-22T09:16:02;37.00;;;20.80;;
10657;SDS011;5377;43.276;26.930;2023-12-22T09:18:29;22.70;;;13.03;;
10657;SDS011;5377;43.276;26.930;2023-12-22T09:20:55;29.17;;;17.37;;
10657;SDS011;5377;43.276;26.930;2023-12-22T09:23:22;34.23;;;20.77;;
10657;SDS011;5377;43.276;26.930;2023-12-22T09:25:48;41.67;;;24.77;;
10657;SDS011;5377;43.276;26.930;2023-12-22T09:28:15;58.37;;;39.43;;
10657;SDS011;5377;43.276;26.930;2023-12-22T09:30:41;116.67;;;68.40;;
10657;SDS011;5377;43.276;26.930;2023-12-22T09:33:09;115.33;;;71.47;;
10657;SDS011;5377;43.276;26.930;2023-12-22T09:35:40;127.43;;;72.63;;
10657;SDS011;5377;43.276;26.930;2023-12-22T09:38:07;74.10;;;44.03;;
10657;SDS011;5377;43.276;26.930;2023-12-22T09:40:34;53.43;;;34.00;;
10657;SDS011;5377;43.276;26.930;2023-12-22T09:43:02;41.77;;;25.00;;
10657;SDS011;5377;43.276;26.930;2023-12-22T09:45:30;36.93;;;24.57;;
10657;SDS011;5377;43.276;26.930;2023-12-22T09:47:57;34.83;;;20.10;;
10657;SDS011;5377;43.276;26.930;2023-12-22T09:50:26;31.70;;;19.17;;
10657;SDS011;5377;43.276;26.930;2023-12-22T09:52:53;27.00;;;19.03;;
10657;SDS011;5377;43.276;26.930;2023-12-22T09:55:20;39.37;;;20.77;;
10657;SDS011;5377;43.276;26.930;2023-12-22T09:57:47;35.03;;;20.93;;
10657;SDS011;5377;43.276;26.930;2023-12-22T10:00:14;40.40;;;27.53;;
10657;SDS011;5377;43.276;26.930;2023-12-22T10:02:41;43.10;;;26.00;;
10657;SDS011;5377;43.276;26.930;2023-12-22T10:05:10;49.90;;;27.87;;
10657;SDS011;5377;43.276;26.930;2023-12-22T10:07:39;40.23;;;26.10;;
10657;SDS011;5377;43.276;26.930;2023-12-22T10:10:06;46.43;;;27.87;;
10657;SDS011;5377;43.276;26.930;2023-12-22T10:12:34;58.37;;;29.27;;
10657;SDS011;5377;43.276;26.930;2023-12-22T10:15:02;60.13;;;31.17;;
10657;SDS011;5377;43.276;26.930;2023-12-22T10:17:29;64.87;;;30.70;;
10657;SDS011;5377;43.276;26.930;2023-12-22T10:19:56;56.27;;;30.20;;
10657;SDS011;5377;43.276;26.930;2023-12-22T10:22:23;58.53;;;29.87;;
10657;SDS011;5377;43.276;26.930;2023-12-22T10:24:51;43.77;;;28.60;;
10657;SDS011;5377;43.276;26.930;2023-12-22T10:27:17;80.97;;;39.33;;
10657;SDS011;5377;43.276;26.930;2023-12-22T10:29:47;72.90;;;35.57;;
10657;SDS011;5377;43.276;26.930;2023-12-22T10:32:14;41.43;;;21.30;;
10657;SDS011;5377;43.276;26.930;2023-12-22T10:34:41;19.10;;;12.47;;
10657;SDS011;5377;43.276;26.930;2023-12-22T10:37:07;17.37;;;10.00;;
10657;SDS011;5377;43.276;26.930;2023-12-22T10:39:35;6.77;;;2.50;;
10657;SDS011;5377;43.276;26.930;2023-12-22T10:42:03;5.77;;;2.90;;
10657;SDS011;5377;43.276;26.930;2023-12-22T10:44:30;4.45;;;2.10;;
10657;SDS011;5377;43.276;26.930;2023-12-22T10:46:57;6.07;;;2.70;;
10657;SDS011;5377;43.276;26.930;2023-12-22T10:49:24;4.22;;;2.60;;
10657;SDS011;5377;43.276;26.930;2023-12-22T10:51:51;5.35;;;3.25;;
10657;SDS011;5377;43.276;26.930;2023-12-22T10:54:18;7.50;;;3.00;;
10657;SDS011;5377;43.276;26.930;2023-12-22T10:56:45;4.05;;;1.98;;
10657;SDS011;5377;43.276;26.930;2023-12-22T10:59:13;5.55;;;2.50;;
10657;SDS011;5377;43.276;26.930;2023-12-22T11:01:42;3.97;;;2.80;;
10657;SDS011;5377;43.276;26.930;2023-12-22T11:04:09;3.28;;;2.72;;
10657;SDS011;5377;43.276;26.930;2023-12-22T11:06:38;3.88;;;2.35;;
10657;SDS011;5377;43.276;26.930;2023-12-22T11:09:07;4.53;;;1.30;;
10657;SDS011;5377;43.276;26.930;2023-12-22T11:11:35;3.28;;;1.55;;
10657;SDS011;5377;43.276;26.930;2023-12-22T11:14:02;13.25;;;2.80;;
10657;SDS011;5377;43.276;26.930;2023-12-22T11:16:31;9.30;;;2.55;;
10657;SDS011;5377;43.276;26.930;2023-12-22T11:18:58;4.53;;;2.10;;
10657;SDS011;5377;43.276;26.930;2023-12-22T11:21:25;3.20;;;1.60;;
10657;SDS011;5377;43.276;26.930;2023-12-22T11:23:53;9.98;;;3.90;;
10657;SDS011;5377;43.276;26.930;2023-12-22T11:26:21;8.77;;;2.85;;
10657;SDS011;5377;43.276;26.930;2023-12-22T11:28:48;3.08;;;2.78;;
10657;SDS011;5377;43.276;26.930;2023-12-22T11:31:16;3.83;;;2.40;;
10657;SDS011;5377;43.276;26.930;2023-12-22T11:33:45;4.72;;;2.92;;
10657;SDS011;5377;43.276;26.930;2023-12-22T11:36:11;7.57;;;2.78;;
10657;SDS011;5377;43.276;26.930;2023-12-22T11:38:38;4.25;;;2.00;;
10657;SDS011;5377;43.276;26.930;2023-12-22T11:41:05;3.20;;;2.50;;
10657;SDS011;5377;43.276;26.930;2023-12-22T11:43:32;5.30;;;2.70;;
10657;SDS011;5377;43.276;26.930;2023-12-22T11:46:01;3.33;;;2.35;;
10657;SDS011;5377;43.276;26.930;2023-12-22T11:48:27;5.35;;;1.83;;
10657;SDS011;5377;43.276;26.930;2023-12-22T11:50:56;1.00;;;0.85;;
10657;SDS011;5377;43.276;26.930;2023-12-22T11:53:23;7.53;;;2.10;;
10657;SDS011;5377;43.276;26.930;2023-12-22T11:55:56;1.95;;;1.38;;
10657;SDS011;5377;43.276;26.930;2023-12-22T12:01:08;2.30;;;2.00;;
10657;SDS011;5377;43.276;26.930;2023-12-22T12:03:40;3.85;;;1.10;;
10657;SDS011;5377;43.276;26.930;2023-12-22T12:08:52;3.92;;;2.22;;
10657;SDS011;5377;43.276;26.930;2023-12-22T12:11:19;3.08;;;1.55;;
10657;SDS011;5377;43.276;26.930;2023-12-22T12:13:46;4.95;;;2.40;;
10657;SDS011;5377;43.276;26.930;2023-12-22T12:16:13;4.35;;;2.70;;
10657;SDS011;5377;43.276;26.930;2023-12-22T12:18:40;2.33;;;1.35;;
10657;SDS011;5377;43.276;26.930;2023-12-22T12:21:07;2.25;;;1.75;;
10657;SDS011;5377;43.276;26.930;2023-12-22T12:23:34;5.82;;;1.85;;
10657;SDS011;5377;43.276;26.930;2023-12-22T12:26:02;5.35;;;1.67;;
10657;SDS011;5377;43.276;26.930;2023-12-22T12:28:29;5.75;;;2.10;;
10657;SDS011;5377;43.276;26.930;2023-12-22T12:30:57;2.35;;;1.45;;
10657;SDS011;5377;43.276;26.930;2023-12-22T12:33:24;1.10;;;0.90;;
10657;SDS011;5377;43.276;26.930;2023-12-22T12:35:52;9.25;;;3.67;;
10657;SDS011;5377;43.276;26.930;2023-12-22T12:38:19;3.57;;;1.77;;
10657;SDS011;5377;43.276;26.930;2023-12-22T12:40:47;3.15;;;1.60;;
10657;SDS011;5377;43.276;26.930;2023-12-22T12:43:17;1.87;;;1.43;;
10657;SDS011;5377;43.276;26.930;2023-12-22T12:45:44;5.22;;;3.63;;
10657;SDS011;5377;43.276;26.930;2023-12-22T12:48:11;5.03;;;1.48;;
10657;SDS011;5377;43.276;26.930;2023-12-22T12:50:42;6.03;;;1.80;;
10657;SDS011;5377;43.276;26.930;2023-12-22T12:53:08;3.22;;;2.28;;
10657;SDS011;5377;43.276;26.930;2023-12-22T12:55:35;2.90;;;1.70;;
10657;SDS011;5377;43.276;26.930;2023-12-22T12:58:01;1.08;;;0.75;;
10657;SDS011;5377;43.276;26.930;2023-12-22T13:00:29;7.35;;;3.15;;
10657;SDS011;5377;43.276;26.930;2023-12-22T13:02:58;1.35;;;1.08;;
10657;SDS011;5377;43.276;26.930;2023-12-22T13:05:28;10.18;;;2.67;;
10657;SDS011;5377;43.276;26.930;2023-12-22T13:08:05;3.60;;;1.13;;
10657;SDS011;5377;43.276;26.930;2023-12-22T13:10:32;5.33;;;1.70;;
10657;SDS011;5377;43.276;26.930;2023-12-22T13:12:58;1.93;;;0.60;;
10657;SDS011;5377;43.276;26.930;2023-12-22T13:15:25;3.85;;;1.30;;
10657;SDS011;5377;43.276;26.930;2023-12-22T13:17:53;1.52;;;1.10;;
10657;SDS011;5377;43.276;26.930;2023-12-22T13:20:20;1.48;;;0.98;;
10657;SDS011;5377;43.276;26.930;2023-12-22T13:22:46;9.40;;;0.87;;
10657;SDS011;5377;43.276;26.930;2023-12-22T13:25:13;13.43;;;0.90;;
10657;SDS011;5377;43.276;26.930;2023-12-22T13:27:46;8.03;;;1.83;;
10657;SDS011;5377;43.276;26.930;2023-12-22T13:30:13;1.73;;;0.90;;
10657;SDS011;5377;43.276;26.930;2023-12-22T13:32:39;4.38;;;0.80;;
10657;SDS011;5377;43.276;26.930;2023-12-22T13:35:08;5.32;;;0.90;;
10657;SDS011;5377;43.276;26.930;2023-12-22T13:37:39;0.73;;;0.60;;
10657;SDS011;5377;43.276;26.930;2023-12-22T13:40:07;4.85;;;2.17;;
10657;SDS011;5377;43.276;26.930;2023-12-22T13:42:34;1.20;;;0.93;;
10657;SDS011;5377;43.276;26.930;2023-12-22T13:45:02;2.97;;;1.67;;
10657;SDS011;5377;43.276;26.930;2023-12-22T13:47:29;2.53;;;1.53;;
10657;SDS011;5377;43.276;26.930;2023-12-22T13:49:56;1.50;;;0.90;;
10657;SDS011;5377;43.276;26.930;2023-12-22T13:52:28;5.43;;;1.20;;
10657;SDS011;5377;43.276;26.930;2023-12-22T13:54:57;2.67;;;0.50;;
10657;SDS011;5377;43.276;26.930;2023-12-22T13:57:26;3.67;;;1.00;;
10657;SDS011;5377;43.276;26.930;2023-12-22T13:59:52;17.73;;;1.60;;
10657;SDS011;5377;43.276;26.930;2023-12-22T14:02:20;2.17;;;0.87;;
10657;SDS011;5377;43.276;26.930;2023-12-22T14:04:48;4.23;;;0.70;;
10657;SDS011;5377;43.276;26.930;2023-12-22T14:07:15;1.17;;;0.50;;
10657;SDS011;5377;43.276;26.930;2023-12-22T14:09:43;2.00;;;0.67;;
10657;SDS011;5377;43.276;26.930;2023-12-22T14:12:09;3.50;;;0.70;;
10657;SDS011;5377;43.276;26.930;2023-12-22T14:14:36;2.07;;;0.53;;
10657;SDS011;5377;43.276;26.930;2023-12-22T14:17:02;2.87;;;0.73;;
10657;SDS011;5377;43.276;26.930;2023-12-22T14:19:29;3.77;;;0.87;;
10657;SDS011;5377;43.276;26.930;2023-12-22T14:21:55;2.93;;;0.60;;
10657;SDS011;5377;43.276;26.930;2023-12-22T14:24:22;0.90;;;0.50;;
10657;SDS011;5377;43.276;26.930;2023-12-22T14:29:21;1.10;;;0.60;;
10657;SDS011;5377;43.276;26.930;2023-12-22T14:31:48;2.97;;;1.43;;
10657;SDS011;5377;43.276;26.930;2023-12-22T14:34:15;2.57;;;0.93;;
10657;SDS011;5377;43.276;26.930;2023-12-22T14:36:42;1.70;;;0.90;;
10657;SDS011;5377;43.276;26.930;2023-12-22T14:39:08;0.30;;;0.30;;